sensor_id;sensor_type;location;lat;lon;timestamp;pressure;altitude;pressure_sealevel;temperature;humidity
51249;BME280;39642;47.556;18.728;2023-07-28T00:02:11;99253.84;;;24.84;41.73
51249;BME280;39642;47.556;18.728;2023-07-28T00:04:37;99257.34;;;24.84;41.74
51249;BME280;39642;47.556;18.728;2023-07-28T00:07:04;99248.53;;;24.84;41.77
51249;BME280;39642;47.556;18.728;2023-07-28T00:09:30;99240.53;;;24.84;41.81
51249;BME280;39642;47.556;18.728;2023-07-28T00:11:57;99241.50;;;24.83;41.77
51249;BME280;39642;47.556;18.728;2023-07-28T00:14:24;99238.00;;;24.82;41.70
51249;BME280;39642;47.556;18.728;2023-07-28T00:16:54;99242.34;;;24.83;41.81
51249;BME280;39642;47.556;18.728;2023-07-28T00:19:21;99244.16;;;24.83;41.81
51249;BME280;39642;47.556;18.728;2023-07-28T00:21:48;99237.00;;;24.83;41.85
51249;BME280;39642;47.556;18.728;2023-07-28T00:24:14;99241.50;;;24.83;41.88
51249;BME280;39642;47.556;18.728;2023-07-28T00:26:40;99239.66;;;24.83;41.77
51249;BME280;39642;47.556;18.728;2023-07-28T00:29:06;99241.50;;;24.83;41.83
51249;BME280;39642;47.556;18.728;2023-07-28T00:31:33;99243.31;;;24.82;41.88
51249;BME280;39642;47.556;18.728;2023-07-28T00:33:59;99244.16;;;24.83;41.87
51249;BME280;39642;47.556;18.728;2023-07-28T00:36:25;99235.34;;;24.82;41.83
51249;BME280;39642;47.556;18.728;2023-07-28T00:38:51;99244.16;;;24.83;41.87
51249;BME280;39642;47.556;18.728;2023-07-28T00:41:17;99235.34;;;24.82;41.91
51249;BME280;39642;47.556;18.728;2023-07-28T00:43:43;99228.19;;;24.83;41.94
51249;BME280;39642;47.556;18.728;2023-07-28T00:46:10;99230.84;;;24.83;41.96
51249;BME280;39642;47.556;18.728;2023-07-28T00:48:36;99222.00;;;24.82;41.97
51249;BME280;39642;47.556;18.728;2023-07-28T00:51:03;99222.84;;;24.83;41.95
51249;BME280;39642;47.556;18.728;2023-07-28T00:53:29;99223.84;;;24.82;41.92
51249;BME280;39642;47.556;18.728;2023-07-28T00:55:55;99229.16;;;24.82;41.98
51249;BME280;39642;47.556;18.728;2023-07-28T00:58:21;99224.69;;;24.82;41.95
51249;BME280;39642;47.556;18.728;2023-07-28T01:00:47;99222.13;;;24.81;41.99
51249;BME280;39642;47.556;18.728;2023-07-28T01:03:14;99221.31;;;24.80;41.97
51249;BME280;39642;47.556;18.728;2023-07-28T01:09:01;99228.31;;;24.81;41.99
51249;BME280;39642;47.556;18.728;2023-07-28T01:11:29;99222.97;;;24.81;41.97
51249;BME280;39642;47.556;18.728;2023-07-28T01:13:55;99224.81;;;24.81;42.04
51249;BME280;39642;47.556;18.728;2023-07-28T01:16:21;99217.66;;;24.81;41.98
51249;BME280;39642;47.556;18.728;2023-07-28T01:18:48;99218.50;;;24.82;42.02
51249;BME280;39642;47.556;18.728;2023-07-28T01:21:17;99217.66;;;24.81;42.03
51249;BME280;39642;47.556;18.728;2023-07-28T01:24:05;99214.97;;;24.81;42.04
51249;BME280;39642;47.556;18.728;2023-07-28T01:26:37;99215.84;;;24.82;42.04
51249;BME280;39642;47.556;18.728;2023-07-28T01:29:04;99208.00;;;24.80;41.99
51249;BME280;39642;47.556;18.728;2023-07-28T01:31:31;99214.97;;;24.81;42.05
51249;BME280;39642;47.556;18.728;2023-07-28T01:33:57;99211.47;;;24.81;42.05
51249;BME280;39642;47.556;18.728;2023-07-28T01:36:23;99204.34;;;24.81;42.03
51249;BME280;39642;47.556;18.728;2023-07-28T01:38:49;99202.66;;;24.80;42.05
51249;BME280;39642;47.556;18.728;2023-07-28T01:41:15;99206.16;;;24.81;42.06
51249;BME280;39642;47.556;18.728;2023-07-28T01:43:41;99205.19;;;24.82;42.02
51249;BME280;39642;47.556;18.728;2023-07-28T01:46:07;99200.00;;;24.80;42.05
51249;BME280;39642;47.556;18.728;2023-07-28T01:48:33;99203.50;;;24.81;42.07
51249;BME280;39642;47.556;18.728;2023-07-28T01:50:59;99200.00;;;24.80;42.06
51249;BME280;39642;47.556;18.728;2023-07-28T01:53:25;99200.84;;;24.81;42.10
51249;BME280;39642;47.556;18.728;2023-07-28T01:55:51;99202.78;;;24.79;42.05
51249;BME280;39642;47.556;18.728;2023-07-28T01:58:17;99203.66;;;24.79;42.11
51249;BME280;39642;47.556;18.728;2023-07-28T02:00:42;99201.00;;;24.79;42.00
51249;BME280;39642;47.556;18.728;2023-07-28T02:03:08;99199.16;;;24.80;42.12
51249;BME280;39642;47.556;18.728;2023-07-28T02:05:34;99195.66;;;24.79;42.12
51249;BME280;39642;47.556;18.728;2023-07-28T02:08:00;99195.66;;;24.79;42.11
51249;BME280;39642;47.556;18.728;2023-07-28T02:10:27;99197.34;;;24.80;42.08
51249;BME280;39642;47.556;18.728;2023-07-28T02:12:53;99194.78;;;24.79;42.15
51249;BME280;39642;47.556;18.728;2023-07-28T02:15:19;99186.81;;;24.79;42.14
51249;BME280;39642;47.556;18.728;2023-07-28T02:17:45;99189.47;;;24.79;42.17
51249;BME280;39642;47.556;18.728;2023-07-28T02:20:11;99184.16;;;24.79;42.13
51249;BME280;39642;47.556;18.728;2023-07-28T02:22:44;99193.00;;;24.79;42.19
51249;BME280;39642;47.556;18.728;2023-07-28T02:25:10;99188.62;;;24.78;42.15
51249;BME280;39642;47.556;18.728;2023-07-28T02:27:37;99187.69;;;24.79;42.21
51249;BME280;39642;47.556;18.728;2023-07-28T02:30:04;99186.81;;;24.79;42.21
51249;BME280;39642;47.556;18.728;2023-07-28T02:32:31;99185.97;;;24.78;42.21
51249;BME280;39642;47.556;18.728;2023-07-28T02:34:57;99188.62;;;24.78;42.23
51249;BME280;39642;47.556;18.728;2023-07-28T02:37:24;99191.28;;;24.78;42.22
51249;BME280;39642;47.556;18.728;2023-07-28T02:39:50;99193.97;;;24.78;42.22
51249;BME280;39642;47.556;18.728;2023-07-28T02:42:16;99201.13;;;24.78;42.21
51249;BME280;39642;47.556;18.728;2023-07-28T02:44:42;99194.94;;;24.77;42.26
51249;BME280;39642;47.556;18.728;2023-07-28T02:47:08;99202.94;;;24.77;42.20
51249;BME280;39642;47.556;18.728;2023-07-28T02:49:34;99200.28;;;24.77;42.29
51249;BME280;39642;47.556;18.728;2023-07-28T02:51:59;99189.62;;;24.77;42.30
51249;BME280;39642;47.556;18.728;2023-07-28T02:54:26;99197.62;;;24.77;42.30
51249;BME280;39642;47.556;18.728;2023-07-28T02:56:52;99194.94;;;24.77;42.32
51249;BME280;39642;47.556;18.728;2023-07-28T02:59:18;99191.41;;;24.77;42.29
51249;BME280;39642;47.556;18.728;2023-07-28T03:01:44;99182.59;;;24.76;42.26
51249;BME280;39642;47.556;18.728;2023-07-28T03:04:10;99182.59;;;24.76;42.33
51249;BME280;39642;47.556;18.728;2023-07-28T03:06:35;99184.31;;;24.77;42.38
51249;BME280;39642;47.556;18.728;2023-07-28T03:09:01;99189.62;;;24.77;42.37
51249;BME280;39642;47.556;18.728;2023-07-28T03:11:27;99186.97;;;24.77;42.37
51249;BME280;39642;47.556;18.728;2023-07-28T03:13:53;99182.47;;;24.78;42.38
51249;BME280;39642;47.556;18.728;2023-07-28T03:16:19;99174.47;;;24.78;42.37
51249;BME280;39642;47.556;18.728;2023-07-28T03:18:45;99185.25;;;24.76;42.42
51249;BME280;39642;47.556;18.728;2023-07-28T03:21:11;99186.97;;;24.77;42.38
51249;BME280;39642;47.556;18.728;2023-07-28T03:23:37;99181.75;;;24.76;42.49
51249;BME280;39642;47.556;18.728;2023-07-28T03:26:03;99188.75;;;24.77;42.49
51249;BME280;39642;47.556;18.728;2023-07-28T03:28:29;99189.62;;;24.77;42.49
51249;BME280;39642;47.556;18.728;2023-07-28T03:30:55;99193.25;;;24.76;42.52
51249;BME280;39642;47.556;18.728;2023-07-28T03:33:20;99197.72;;;24.76;42.54
51249;BME280;39642;47.556;18.728;2023-07-28T03:35:46;99180.91;;;24.75;42.51
51249;BME280;39642;47.556;18.728;2023-07-28T03:38:12;99193.25;;;24.76;42.54
51249;BME280;39642;47.556;18.728;2023-07-28T03:40:38;99193.25;;;24.76;42.61
51249;BME280;39642;47.556;18.728;2023-07-28T03:43:04;99193.25;;;24.76;42.57
51249;BME280;39642;47.556;18.728;2023-07-28T03:45:30;99191.41;;;24.77;42.56
51249;BME280;39642;47.556;18.728;2023-07-28T03:47:56;99192.41;;;24.76;42.59
51249;BME280;39642;47.556;18.728;2023-07-28T03:50:22;99195.06;;;24.76;42.59
51249;BME280;39642;47.556;18.728;2023-07-28T03:52:50;99203.06;;;24.76;42.69
51249;BME280;39642;47.556;18.728;2023-07-28T03:55:15;99208.25;;;24.77;42.71
51249;BME280;39642;47.556;18.728;2023-07-28T03:57:41;99211.03;;;24.76;42.71
51249;BME280;39642;47.556;18.728;2023-07-28T04:00:08;99209.22;;;24.76;42.73
51249;BME280;39642;47.556;18.728;2023-07-28T04:02:34;99209.22;;;24.76;42.73
51249;BME280;39642;47.556;18.728;2023-07-28T04:05:00;99204.88;;;24.75;42.74
51249;BME280;39642;47.556;18.728;2023-07-28T04:07:26;99211.03;;;24.76;42.79
51249;BME280;39642;47.556;18.728;2023-07-28T04:09:51;99205.72;;;24.76;42.76
51249;BME280;39642;47.556;18.728;2023-07-28T04:12:17;99198.56;;;24.76;42.79
51249;BME280;39642;47.556;18.728;2023-07-28T04:14:43;99203.06;;;24.76;42.69
51249;BME280;39642;47.556;18.728;2023-07-28T04:17:09;99203.91;;;24.76;42.79
51249;BME280;39642;47.556;18.728;2023-07-28T04:19:35;99204.88;;;24.75;42.80
51249;BME280;39642;47.556;18.728;2023-07-28T04:22:01;99200.41;;;24.76;42.80
51249;BME280;39642;47.556;18.728;2023-07-28T04:24:27;99194.22;;;24.75;42.85
51249;BME280;39642;47.556;18.728;2023-07-28T04:26:53;99193.41;;;24.75;42.88
51249;BME280;39642;47.556;18.728;2023-07-28T04:29:19;99195.06;;;24.76;42.87
51249;BME280;39642;47.556;18.728;2023-07-28T04:31:45;99186.09;;;24.77;42.83
51249;BME280;39642;47.556;18.728;2023-07-28T04:34:10;99178.09;;;24.77;42.83
51249;BME280;39642;47.556;18.728;2023-07-28T04:36:36;99180.91;;;24.75;42.90
51249;BME280;39642;47.556;18.728;2023-07-28T04:39:02;99172.94;;;24.75;42.87
51249;BME280;39642;47.556;18.728;2023-07-28T04:41:29;99177.28;;;24.76;42.92
51249;BME280;39642;47.556;18.728;2023-07-28T04:43:56;99172.94;;;24.75;42.91
51249;BME280;39642;47.556;18.728;2023-07-28T04:46:21;99190.59;;;24.76;42.94
51249;BME280;39642;47.556;18.728;2023-07-28T04:48:47;99187.09;;;24.76;42.98
51249;BME280;39642;47.556;18.728;2023-07-28T04:51:13;99192.41;;;24.76;42.94
51249;BME280;39642;47.556;18.728;2023-07-28T04:53:39;99182.75;;;24.75;42.95
51249;BME280;39642;47.556;18.728;2023-07-28T04:56:05;99194.22;;;24.75;43.00
51249;BME280;39642;47.556;18.728;2023-07-28T04:58:31;99194.22;;;24.75;42.99
51249;BME280;39642;47.556;18.728;2023-07-28T05:00:57;99180.09;;;24.75;42.90
51249;BME280;39642;47.556;18.728;2023-07-28T05:03:23;99170.28;;;24.75;42.93
51249;BME280;39642;47.556;18.728;2023-07-28T05:05:49;99176.56;;;24.74;42.92
51249;BME280;39642;47.556;18.728;2023-07-28T05:08:15;99179.22;;;24.74;42.98
51249;BME280;39642;47.556;18.728;2023-07-28T05:10:41;99180.09;;;24.75;42.88
51249;BME280;39642;47.556;18.728;2023-07-28T05:13:11;99183.59;;;24.75;42.93
51249;BME280;39642;47.556;18.728;2023-07-28T05:15:36;99180.91;;;24.75;42.96
51249;BME280;39642;47.556;18.728;2023-07-28T05:18:02;99181.75;;;24.76;42.95
51249;BME280;39642;47.556;18.728;2023-07-28T05:20:28;99180.09;;;24.75;42.87
51249;BME280;39642;47.556;18.728;2023-07-28T05:22:54;99175.59;;;24.75;43.01
51249;BME280;39642;47.556;18.728;2023-07-28T05:25:20;99180.91;;;24.75;42.90
51249;BME280;39642;47.556;18.728;2023-07-28T05:27:46;99176.44;;;24.76;42.97
51249;BME280;39642;47.556;18.728;2023-07-28T05:30:12;99181.75;;;24.76;42.88
51249;BME280;39642;47.556;18.728;2023-07-28T05:32:37;99185.25;;;24.76;42.88
51249;BME280;39642;47.556;18.728;2023-07-28T05:35:04;99190.47;;;24.78;42.94
51249;BME280;39642;47.556;18.728;2023-07-28T05:37:29;99199.41;;;24.77;42.99
51249;BME280;39642;47.556;18.728;2023-07-28T05:39:55;99206.56;;;24.76;42.98
51249;BME280;39642;47.556;18.728;2023-07-28T05:42:21;99208.25;;;24.77;42.99
51249;BME280;39642;47.556;18.728;2023-07-28T05:44:47;99199.41;;;24.77;42.99
51249;BME280;39642;47.556;18.728;2023-07-28T05:47:13;99209.22;;;24.76;43.03
51249;BME280;39642;47.556;18.728;2023-07-28T05:49:39;99207.41;;;24.77;43.05
51249;BME280;39642;47.556;18.728;2023-07-28T05:52:05;99210.94;;;24.77;42.98
51249;BME280;39642;47.556;18.728;2023-07-28T05:54:31;99210.94;;;24.77;42.97
51249;BME280;39642;47.556;18.728;2023-07-28T05:56:56;99217.09;;;24.78;42.99
51249;BME280;39642;47.556;18.728;2023-07-28T05:59:22;99215.25;;;24.78;42.97
51249;BME280;39642;47.556;18.728;2023-07-28T06:01:48;99214.31;;;24.79;42.91
51249;BME280;39642;47.556;18.728;2023-07-28T06:04:14;99211.62;;;24.79;42.98
51249;BME280;39642;47.556;18.728;2023-07-28T06:06:40;99215.97;;;24.80;42.99
51249;BME280;39642;47.556;18.728;2023-07-28T06:09:06;99214.97;;;24.81;42.97
51249;BME280;39642;47.556;18.728;2023-07-28T06:11:33;99214.03;;;24.82;43.00
51249;BME280;39642;47.556;18.728;2023-07-28T06:13:59;99217.53;;;24.83;42.96
51249;BME280;39642;47.556;18.728;2023-07-28T06:16:25;99212.19;;;24.83;42.96
51249;BME280;39642;47.556;18.728;2023-07-28T06:18:51;99215.59;;;24.85;42.95
51249;BME280;39642;47.556;18.728;2023-07-28T06:21:16;99215.59;;;24.85;42.97
51249;BME280;39642;47.556;18.728;2023-07-28T06:23:42;99216.56;;;24.84;42.95
51249;BME280;39642;47.556;18.728;2023-07-28T06:26:08;99223.56;;;24.85;42.99
51249;BME280;39642;47.556;18.728;2023-07-28T06:28:34;99222.63;;;24.86;42.96
51249;BME280;39642;47.556;18.728;2023-07-28T06:31:00;99215.47;;;24.86;42.93
51249;BME280;39642;47.556;18.728;2023-07-28T06:33:28;99205.66;;;24.87;42.92
51249;BME280;39642;47.556;18.728;2023-07-28T06:35:54;99200.19;;;24.88;42.94
51249;BME280;39642;47.556;18.728;2023-07-28T06:38:20;99193.87;;;24.89;42.88
51249;BME280;39642;47.556;18.728;2023-07-28T06:40:46;99188.44;;;24.91;42.85
51249;BME280;39642;47.556;18.728;2023-07-28T06:43:12;99184.06;;;24.90;42.92
51249;BME280;39642;47.556;18.728;2023-07-28T06:45:38;99190.25;;;24.90;42.93
51249;BME280;39642;47.556;18.728;2023-07-28T06:48:04;99193.75;;;24.91;42.83
51249;BME280;39642;47.556;18.728;2023-07-28T06:50:30;99195.44;;;24.92;42.84
51249;BME280;39642;47.556;18.728;2023-07-28T06:52:58;99196.25;;;24.92;42.88
51249;BME280;39642;47.556;18.728;2023-07-28T06:55:23;99194.47;;;24.93;42.78
51249;BME280;39642;47.556;18.728;2023-07-28T06:57:49;99186.47;;;24.93;42.78
51249;BME280;39642;47.556;18.728;2023-07-28T07:00:16;99189.16;;;24.93;42.76
51249;BME280;39642;47.556;18.728;2023-07-28T07:02:44;99194.31;;;24.94;42.74
51249;BME280;39642;47.556;18.728;2023-07-28T07:05:10;99183.66;;;24.94;42.76
51249;BME280;39642;47.556;18.728;2023-07-28T07:07:36;99190.69;;;24.96;42.71
51249;BME280;39642;47.556;18.728;2023-07-28T07:10:02;99189.00;;;24.94;42.65
51249;BME280;39642;47.556;18.728;2023-07-28T07:12:28;99196.03;;;24.96;42.80
51249;BME280;39642;47.556;18.728;2023-07-28T07:14:53;99186.19;;;24.96;42.79
51249;BME280;39642;47.556;18.728;2023-07-28T07:17:20;99182.69;;;24.96;42.68
51249;BME280;39642;47.556;18.728;2023-07-28T07:19:45;99181.72;;;24.97;42.68
51249;BME280;39642;47.556;18.728;2023-07-28T07:22:11;99176.25;;;24.98;42.61
51249;BME280;39642;47.556;18.728;2023-07-28T07:24:37;99177.94;;;24.99;42.66
51249;BME280;39642;47.556;18.728;2023-07-28T07:27:03;99174.44;;;24.99;42.63
51249;BME280;39642;47.556;18.728;2023-07-28T07:29:29;99171.78;;;24.99;42.66
51249;BME280;39642;47.556;18.728;2023-07-28T07:31:55;99171.66;;;25.00;42.69
51249;BME280;39642;47.556;18.728;2023-07-28T07:34:22;99164.63;;;24.99;42.70
51249;BME280;39642;47.556;18.728;2023-07-28T07:36:49;99167.16;;;25.01;42.66
51249;BME280;39642;47.556;18.728;2023-07-28T07:39:15;99169.09;;;24.99;42.70
51249;BME280;39642;47.556;18.728;2023-07-28T07:41:41;99170.09;;;24.98;42.72
51249;BME280;39642;47.556;18.728;2023-07-28T07:44:07;99165.03;;;24.94;42.76
51249;BME280;39642;47.556;18.728;2023-07-28T07:46:33;99171.63;;;24.90;42.84
51249;BME280;39642;47.556;18.728;2023-07-28T07:48:59;99173.56;;;24.88;42.88
51249;BME280;39642;47.556;18.728;2023-07-28T07:51:25;99173.69;;;24.87;42.93
51249;BME280;39642;47.556;18.728;2023-07-28T07:53:50;99173.09;;;24.83;42.94
51249;BME280;39642;47.556;18.728;2023-07-28T07:56:17;99174.22;;;24.81;42.99
51249;BME280;39642;47.556;18.728;2023-07-28T07:58:43;99176.03;;;24.80;42.98
51249;BME280;39642;47.556;18.728;2023-07-28T08:01:09;99176.31;;;24.77;43.01
51249;BME280;39642;47.556;18.728;2023-07-28T08:03:35;99170.28;;;24.75;42.92
51249;BME280;39642;47.556;18.728;2023-07-28T08:06:02;99175.72;;;24.73;42.96
51249;BME280;39642;47.556;18.728;2023-07-28T08:08:28;99173.19;;;24.72;43.01
51249;BME280;39642;47.556;18.728;2023-07-28T08:10:54;99181.16;;;24.72;43.00
51249;BME280;39642;47.556;18.728;2023-07-28T08:13:20;99179.50;;;24.71;42.98
51249;BME280;39642;47.556;18.728;2023-07-28T08:15:49;99183.13;;;24.70;42.92
51249;BME280;39642;47.556;18.728;2023-07-28T08:18:15;99180.44;;;24.70;43.01
51249;BME280;39642;47.556;18.728;2023-07-28T08:20:41;99176.13;;;24.69;42.96
51249;BME280;39642;47.556;18.728;2023-07-28T08:23:07;99169.13;;;24.68;42.98
51249;BME280;39642;47.556;18.728;2023-07-28T08:25:33;99162.09;;;24.67;43.03
51249;BME280;39642;47.556;18.728;2023-07-28T08:28:00;99161.13;;;24.68;43.09
51249;BME280;39642;47.556;18.728;2023-07-28T08:30:26;99160.03;;;24.70;43.09
51249;BME280;39642;47.556;18.728;2023-07-28T08:32:52;99171.50;;;24.71;43.10
51249;BME280;39642;47.556;18.728;2023-07-28T08:35:18;99159.75;;;24.73;43.07
51249;BME280;39642;47.556;18.728;2023-07-28T08:37:44;99162.28;;;24.75;43.10
51249;BME280;39642;47.556;18.728;2023-07-28T08:40:10;99151.47;;;24.77;43.08
51249;BME280;39642;47.556;18.728;2023-07-28T08:42:39;99149.41;;;24.80;43.05
51249;BME280;39642;47.556;18.728;2023-07-28T08:45:06;99139.47;;;24.82;43.04
51249;BME280;39642;47.556;18.728;2023-07-28T08:47:34;99135.81;;;24.83;43.01
51249;BME280;39642;47.556;18.728;2023-07-28T08:50:00;99131.19;;;24.85;42.94
51249;BME280;39642;47.556;18.728;2023-07-28T08:52:27;99137.25;;;24.87;42.94
51249;BME280;39642;47.556;18.728;2023-07-28T08:54:53;99130.94;;;24.88;42.93
51249;BME280;39642;47.556;18.728;2023-07-28T08:57:19;99139.66;;;24.90;42.90
51249;BME280;39642;47.556;18.728;2023-07-28T08:59:46;99135.00;;;24.92;42.89
51249;BME280;39642;47.556;18.728;2023-07-28T09:02:17;99133.22;;;24.93;42.88
51249;BME280;39642;47.556;18.728;2023-07-28T09:04:44;99133.06;;;24.94;42.87
51249;BME280;39642;47.556;18.728;2023-07-28T09:07:10;99133.78;;;24.97;42.88
51249;BME280;39642;47.556;18.728;2023-07-28T09:09:36;99138.97;;;24.98;42.87
51249;BME280;39642;47.556;18.728;2023-07-28T09:12:02;99136.19;;;25.00;42.84
51249;BME280;39642;47.556;18.728;2023-07-28T09:14:29;99135.31;;;24.99;42.86
51249;BME280;39642;47.556;18.728;2023-07-28T09:16:56;99128.91;;;25.02;42.85
51249;BME280;39642;47.556;18.728;2023-07-28T09:19:31;99142.22;;;25.02;42.79
51249;BME280;39642;47.556;18.728;2023-07-28T09:21:58;99135.91;;;25.03;42.78
51249;BME280;39642;47.556;18.728;2023-07-28T09:24:32;99134.78;;;25.05;42.74
51249;BME280;39642;47.556;18.728;2023-07-28T09:26:59;99132.13;;;25.05;42.68
51249;BME280;39642;47.556;18.728;2023-07-28T09:29:26;99137.56;;;25.04;42.71
51249;BME280;39642;47.556;18.728;2023-07-28T09:32:03;99134.06;;;25.03;42.67
51249;BME280;39642;47.556;18.728;2023-07-28T09:34:30;99129.59;;;25.04;42.61
51249;BME280;39642;47.556;18.728;2023-07-28T09:36:57;99128.62;;;25.05;42.49
51249;BME280;39642;47.556;18.728;2023-07-28T09:39:24;99128.50;;;25.06;42.46
51249;BME280;39642;47.556;18.728;2023-07-28T09:41:50;99122.88;;;25.09;42.40
51249;BME280;39642;47.556;18.728;2023-07-28T09:44:16;99121.06;;;25.10;42.31
51249;BME280;39642;47.556;18.728;2023-07-28T09:46:53;99125.44;;;25.11;42.28
51249;BME280;39642;47.556;18.728;2023-07-28T09:52:04;99122.75;;;25.11;42.24
51249;BME280;39642;47.556;18.728;2023-07-28T09:54:30;99123.31;;;25.14;42.21
51249;BME280;39642;47.556;18.728;2023-07-28T09:56:58;99127.69;;;25.16;42.18
51249;BME280;39642;47.556;18.728;2023-07-28T09:59:40;99125.00;;;25.16;42.18
51249;BME280;39642;47.556;18.728;2023-07-28T10:02:07;99122.19;;;25.17;42.19
51249;BME280;39642;47.556;18.728;2023-07-28T10:04:34;99132.84;;;25.17;42.19
51249;BME280;39642;47.556;18.728;2023-07-28T10:07:00;99124.84;;;25.17;42.21
51249;BME280;39642;47.556;18.728;2023-07-28T10:09:28;99126.56;;;25.18;42.18
51249;BME280;39642;47.556;18.728;2023-07-28T10:11:56;99123.81;;;25.20;42.18
51249;BME280;39642;47.556;18.728;2023-07-28T10:14:26;99128.25;;;25.19;42.19
51249;BME280;39642;47.556;18.728;2023-07-28T10:16:59;99122.81;;;25.21;42.19
51249;BME280;39642;47.556;18.728;2023-07-28T10:19:28;99129.12;;;25.20;42.19
51249;BME280;39642;47.556;18.728;2023-07-28T10:22:00;99121.81;;;25.22;42.17
51249;BME280;39642;47.556;18.728;2023-07-28T10:24:55;99128.97;;;25.21;42.22
51249;BME280;39642;47.556;18.728;2023-07-28T10:27:46;99124.34;;;25.23;42.17
51249;BME280;39642;47.556;18.728;2023-07-28T10:30:14;99127.16;;;25.22;42.18
51249;BME280;39642;47.556;18.728;2023-07-28T10:32:42;99123.53;;;25.23;42.21
51249;BME280;39642;47.556;18.728;2023-07-28T10:35:22;99116.37;;;25.23;42.18
51249;BME280;39642;47.556;18.728;2023-07-28T10:37:48;99123.53;;;25.23;42.25
51249;BME280;39642;47.556;18.728;2023-07-28T10:42:53;99116.37;;;25.23;42.27
51249;BME280;39642;47.556;18.728;2023-07-28T10:45:20;99118.91;;;25.25;42.24
51249;BME280;39642;47.556;18.728;2023-07-28T10:47:46;99125.06;;;25.25;42.24
51249;BME280;39642;47.556;18.728;2023-07-28T10:50:13;99116.22;;;25.25;42.29
51249;BME280;39642;47.556;18.728;2023-07-28T10:52:44;99116.06;;;25.26;42.29
51249;BME280;39642;47.556;18.728;2023-07-28T10:55:23;99112.44;;;25.27;42.28
51249;BME280;39642;47.556;18.728;2023-07-28T10:57:51;99123.94;;;25.28;42.30
51249;BME280;39642;47.556;18.728;2023-07-28T11:00:19;99113.28;;;25.28;42.33
51249;BME280;39642;47.556;18.728;2023-07-28T11:02:48;99113.16;;;25.29;42.29
51249;BME280;39642;47.556;18.728;2023-07-28T11:05:28;99118.34;;;25.31;42.31
51249;BME280;39642;47.556;18.728;2023-07-28T11:07:55;99114.69;;;25.32;42.31
51249;BME280;39642;47.556;18.728;2023-07-28T11:10:22;99112.88;;;25.32;42.31
51249;BME280;39642;47.556;18.728;2023-07-28T11:12:49;99104.88;;;25.32;42.34
51249;BME280;39642;47.556;18.728;2023-07-28T11:15:17;99106.72;;;25.32;42.38
51249;BME280;39642;47.556;18.728;2023-07-28T11:17:49;99110.22;;;25.32;42.37
51249;BME280;39642;47.556;18.728;2023-07-28T11:22:47;99113.03;;;25.31;42.45
51249;BME280;39642;47.556;18.728;2023-07-28T11:25:13;99112.16;;;25.30;42.50
51249;BME280;39642;47.556;18.728;2023-07-28T11:27:39;99106.84;;;25.30;42.53
51249;BME280;39642;47.556;18.728;2023-07-28T11:30:08;99120.16;;;25.30;42.55
51249;BME280;39642;47.556;18.728;2023-07-28T11:32:38;99108.53;;;25.31;42.56
51249;BME280;39642;47.556;18.728;2023-07-28T11:37:32;99103.75;;;25.35;42.51
51249;BME280;39642;47.556;18.728;2023-07-28T11:40:00;99096.75;;;25.34;42.57
51249;BME280;39642;47.556;18.728;2023-07-28T11:42:30;99092.38;;;25.33;42.57
51249;BME280;39642;47.556;18.728;2023-07-28T11:44:56;99097.59;;;25.34;42.56
51249;BME280;39642;47.556;18.728;2023-07-28T11:47:22;99097.59;;;25.34;42.60
51249;BME280;39642;47.556;18.728;2023-07-28T11:49:48;99101.97;;;25.36;42.56
51249;BME280;39642;47.556;18.728;2023-07-28T11:52:14;99097.34;;;25.38;42.52
51249;BME280;39642;47.556;18.728;2023-07-28T11:54:41;99092.97;;;25.37;42.60
51249;BME280;39642;47.556;18.728;2023-07-28T11:57:08;99085.97;;;25.36;42.64
51249;BME280;39642;47.556;18.728;2023-07-28T11:59:35;99087.63;;;25.37;42.64
51249;BME280;39642;47.556;18.728;2023-07-28T12:02:02;99080.47;;;25.37;42.65
51249;BME280;39642;47.556;18.728;2023-07-28T12:04:40;99075.03;;;25.39;42.63
51249;BME280;39642;47.556;18.728;2023-07-28T12:07:08;99076.69;;;25.40;42.58
51249;BME280;39642;47.556;18.728;2023-07-28T12:12:16;99072.34;;;25.39;42.64
51249;BME280;39642;47.556;18.728;2023-07-28T12:14:42;99074.03;;;25.40;42.62
51249;BME280;39642;47.556;18.728;2023-07-28T12:17:16;99068.69;;;25.40;42.64
51249;BME280;39642;47.556;18.728;2023-07-28T12:20:08;99059.16;;;25.37;42.69
51249;BME280;39642;47.556;18.728;2023-07-28T12:22:41;99066.31;;;25.37;42.73
51249;BME280;39642;47.556;18.728;2023-07-28T12:25:08;99065.47;;;25.36;42.77
51249;BME280;39642;47.556;18.728;2023-07-28T12:27:34;99060.03;;;25.38;42.76
51249;BME280;39642;47.556;18.728;2023-07-28T12:30:01;99058.31;;;25.37;42.77
51249;BME280;39642;47.556;18.728;2023-07-28T12:32:28;99056.50;;;25.37;42.79
51249;BME280;39642;47.556;18.728;2023-07-28T12:34:54;99060.16;;;25.36;42.86
51249;BME280;39642;47.556;18.728;2023-07-28T12:37:20;99060.03;;;25.38;42.89
51249;BME280;39642;47.556;18.728;2023-07-28T12:39:46;99053.69;;;25.39;42.78
51249;BME280;39642;47.556;18.728;2023-07-28T12:42:12;99057.91;;;25.41;42.74
51249;BME280;39642;47.556;18.728;2023-07-28T12:44:39;99054.41;;;25.41;42.78
51249;BME280;39642;47.556;18.728;2023-07-28T12:47:05;99058.03;;;25.40;42.82
51249;BME280;39642;47.556;18.728;2023-07-28T12:49:31;99065.34;;;25.38;42.87
51249;BME280;39642;47.556;18.728;2023-07-28T12:52:01;99049.38;;;25.38;42.90
51249;BME280;39642;47.556;18.728;2023-07-28T12:54:28;99059.31;;;25.36;42.98
51249;BME280;39642;47.556;18.728;2023-07-28T12:56:54;99056.66;;;25.36;42.97
51249;BME280;39642;47.556;18.728;2023-07-28T12:59:20;99054.94;;;25.34;43.00
51249;BME280;39642;47.556;18.728;2023-07-28T13:01:46;99054.94;;;25.34;43.02
51249;BME280;39642;47.556;18.728;2023-07-28T13:04:12;99050.47;;;25.35;43.02
51249;BME280;39642;47.556;18.728;2023-07-28T13:06:38;99056.78;;;25.34;43.08